sensor_id;sensor_type;location;lat;lon;timestamp;P1;durP1;ratioP1;P2;durP2;ratioP2
42226;SDS011;27892;52.378;13.122;2023-05-07T00:02:24;11.10;;;8.73;;
42226;SDS011;27892;52.378;13.122;2023-05-07T00:04:50;9.90;;;8.20;;
42226;SDS011;27892;52.378;13.122;2023-05-07T00:07:17;11.13;;;8.73;;
42226;SDS011;27892;52.378;13.122;2023-05-07T00:09:43;11.27;;;9.03;;
42226;SDS011;27892;52.378;13.122;2023-05-07T00:12:08;10.10;;;7.87;;
42226;SDS011;27892;52.378;13.122;2023-05-07T00:14:34;13.97;;;11.30;;
42226;SDS011;27892;52.378;13.122;2023-05-07T00:17:00;11.53;;;9.60;;
42226;SDS011;27892;52.378;13.122;2023-05-07T00:19:26;11.40;;;9.20;;
42226;SDS011;27892;52.378;13.122;2023-05-07T00:21:51;11.30;;;8.90;;
42226;SDS011;27892;52.378;13.122;2023-05-07T00:24:19;12.93;;;10.07;;
42226;SDS011;27892;52.378;13.122;2023-05-07T00:26:44;8.60;;;7.70;;
42226;SDS011;27892;52.378;13.122;2023-05-07T00:29:10;9.03;;;8.13;;
42226;SDS011;27892;52.378;13.122;2023-05-07T00:31:36;13.13;;;10.27;;
42226;SDS011;27892;52.378;13.122;2023-05-07T00:34:01;11.10;;;8.80;;
42226;SDS011;27892;52.378;13.122;2023-05-07T00:36:27;12.73;;;9.40;;
42226;SDS011;27892;52.378;13.122;2023-05-07T00:38:53;11.30;;;9.43;;
42226;SDS011;27892;52.378;13.122;2023-05-07T00:41:20;11.07;;;8.93;;
42226;SDS011;27892;52.378;13.122;2023-05-07T00:43:46;10.87;;;9.13;;
42226;SDS011;27892;52.378;13.122;2023-05-07T00:46:12;9.80;;;8.80;;
42226;SDS011;27892;52.378;13.122;2023-05-07T00:48:39;11.27;;;9.20;;
42226;SDS011;27892;52.378;13.122;2023-05-07T00:51:05;10.97;;;8.53;;
42226;SDS011;27892;52.378;13.122;2023-05-07T00:53:30;10.27;;;8.57;;
42226;SDS011;27892;52.378;13.122;2023-05-07T00:55:56;9.57;;;8.03;;
42226;SDS011;27892;52.378;13.122;2023-05-07T00:58:22;11.03;;;8.17;;
42226;SDS011;27892;52.378;13.122;2023-05-07T01:00:49;7.87;;;7.07;;
42226;SDS011;27892;52.378;13.122;2023-05-07T01:03:15;11.63;;;8.57;;
42226;SDS011;27892;52.378;13.122;2023-05-07T01:05:41;8.93;;;7.80;;
42226;SDS011;27892;52.378;13.122;2023-05-07T01:08:07;10.73;;;8.33;;
42226;SDS011;27892;52.378;13.122;2023-05-07T01:10:33;10.10;;;8.00;;
42226;SDS011;27892;52.378;13.122;2023-05-07T01:12:59;11.60;;;9.37;;
42226;SDS011;27892;52.378;13.122;2023-05-07T01:15:25;10.00;;;8.73;;
42226;SDS011;27892;52.378;13.122;2023-05-07T01:17:51;10.83;;;8.60;;
42226;SDS011;27892;52.378;13.122;2023-05-07T01:20:17;11.73;;;9.63;;
42226;SDS011;27892;52.378;13.122;2023-05-07T01:22:44;9.87;;;8.50;;
42226;SDS011;27892;52.378;13.122;2023-05-07T01:25:10;10.90;;;8.83;;
42226;SDS011;27892;52.378;13.122;2023-05-07T01:27:36;11.37;;;8.83;;
42226;SDS011;27892;52.378;13.122;2023-05-07T01:30:05;10.77;;;8.93;;
42226;SDS011;27892;52.378;13.122;2023-05-07T01:32:33;30.07;;;19.37;;
42226;SDS011;27892;52.378;13.122;2023-05-07T01:35:09;21.07;;;15.20;;
42226;SDS011;27892;52.378;13.122;2023-05-07T01:37:36;14.20;;;9.73;;
42226;SDS011;27892;52.378;13.122;2023-05-07T01:40:04;12.53;;;9.43;;
42226;SDS011;27892;52.378;13.122;2023-05-07T01:42:30;9.27;;;7.97;;
42226;SDS011;27892;52.378;13.122;2023-05-07T01:44:56;9.73;;;8.17;;
42226;SDS011;27892;52.378;13.122;2023-05-07T01:47:22;10.67;;;7.77;;
42226;SDS011;27892;52.378;13.122;2023-05-07T01:49:49;7.43;;;6.50;;
42226;SDS011;27892;52.378;13.122;2023-05-07T01:52:15;9.30;;;7.03;;
42226;SDS011;27892;52.378;13.122;2023-05-07T01:54:41;10.07;;;8.10;;
42226;SDS011;27892;52.378;13.122;2023-05-07T01:57:07;8.53;;;7.40;;
42226;SDS011;27892;52.378;13.122;2023-05-07T01:59:33;8.70;;;7.80;;
42226;SDS011;27892;52.378;13.122;2023-05-07T02:01:59;8.73;;;6.70;;
42226;SDS011;27892;52.378;13.122;2023-05-07T02:04:25;7.40;;;6.30;;
42226;SDS011;27892;52.378;13.122;2023-05-07T02:06:51;6.70;;;5.70;;
42226;SDS011;27892;52.378;13.122;2023-05-07T02:09:17;7.40;;;6.67;;
42226;SDS011;27892;52.378;13.122;2023-05-07T02:11:43;8.27;;;7.20;;
42226;SDS011;27892;52.378;13.122;2023-05-07T02:14:09;7.77;;;6.63;;
42226;SDS011;27892;52.378;13.122;2023-05-07T02:16:35;7.60;;;6.53;;
42226;SDS011;27892;52.378;13.122;2023-05-07T02:19:01;6.63;;;5.93;;
42226;SDS011;27892;52.378;13.122;2023-05-07T02:21:27;6.57;;;5.90;;
42226;SDS011;27892;52.378;13.122;2023-05-07T02:23:53;8.70;;;7.00;;
42226;SDS011;27892;52.378;13.122;2023-05-07T02:26:19;7.20;;;6.50;;
42226;SDS011;27892;52.378;13.122;2023-05-07T02:28:44;9.03;;;7.57;;
42226;SDS011;27892;52.378;13.122;2023-05-07T02:31:10;9.80;;;7.93;;
42226;SDS011;27892;52.378;13.122;2023-05-07T02:33:36;9.90;;;8.47;;
42226;SDS011;27892;52.378;13.122;2023-05-07T02:36:08;8.37;;;7.53;;
42226;SDS011;27892;52.378;13.122;2023-05-07T02:38:34;8.47;;;7.00;;
42226;SDS011;27892;52.378;13.122;2023-05-07T02:41:00;7.20;;;6.50;;
42226;SDS011;27892;52.378;13.122;2023-05-07T02:43:26;7.63;;;6.60;;
42226;SDS011;27892;52.378;13.122;2023-05-07T02:46:04;8.77;;;7.20;;
42226;SDS011;27892;52.378;13.122;2023-05-07T02:48:31;6.30;;;5.70;;
42226;SDS011;27892;52.378;13.122;2023-05-07T02:50:58;8.17;;;6.93;;
42226;SDS011;27892;52.378;13.122;2023-05-07T02:53:24;8.07;;;7.23;;
42226;SDS011;27892;52.378;13.122;2023-05-07T02:55:52;8.73;;;6.70;;
42226;SDS011;27892;52.378;13.122;2023-05-07T02:58:18;6.80;;;5.80;;
42226;SDS011;27892;52.378;13.122;2023-05-07T03:00:43;7.67;;;6.60;;
42226;SDS011;27892;52.378;13.122;2023-05-07T03:03:09;7.70;;;6.90;;
42226;SDS011;27892;52.378;13.122;2023-05-07T03:05:35;8.00;;;7.13;;
42226;SDS011;27892;52.378;13.122;2023-05-07T03:08:01;9.67;;;7.67;;
42226;SDS011;27892;52.378;13.122;2023-05-07T03:10:27;8.47;;;7.20;;
42226;SDS011;27892;52.378;13.122;2023-05-07T03:12:53;7.60;;;6.50;;
42226;SDS011;27892;52.378;13.122;2023-05-07T03:15:19;7.83;;;6.07;;
42226;SDS011;27892;52.378;13.122;2023-05-07T03:17:44;6.80;;;6.03;;
42226;SDS011;27892;52.378;13.122;2023-05-07T03:20:10;7.83;;;6.80;;
42226;SDS011;27892;52.378;13.122;2023-05-07T03:22:36;8.00;;;6.60;;
42226;SDS011;27892;52.378;13.122;2023-05-07T03:25:02;6.30;;;5.67;;
42226;SDS011;27892;52.378;13.122;2023-05-07T03:27:27;8.00;;;6.80;;
42226;SDS011;27892;52.378;13.122;2023-05-07T03:29:53;9.40;;;7.43;;
42226;SDS011;27892;52.378;13.122;2023-05-07T03:32:19;9.00;;;7.03;;
42226;SDS011;27892;52.378;13.122;2023-05-07T03:34:44;8.27;;;7.20;;
42226;SDS011;27892;52.378;13.122;2023-05-07T03:37:10;9.30;;;7.90;;
42226;SDS011;27892;52.378;13.122;2023-05-07T03:39:36;9.17;;;6.40;;
42226;SDS011;27892;52.378;13.122;2023-05-07T03:42:01;9.47;;;7.77;;
42226;SDS011;27892;52.378;13.122;2023-05-07T03:44:27;7.93;;;7.10;;
42226;SDS011;27892;52.378;13.122;2023-05-07T03:46:53;8.87;;;7.43;;
42226;SDS011;27892;52.378;13.122;2023-05-07T03:49:19;10.60;;;8.07;;
42226;SDS011;27892;52.378;13.122;2023-05-07T03:51:44;8.97;;;6.63;;
42226;SDS011;27892;52.378;13.122;2023-05-07T03:54:10;9.10;;;7.10;;
42226;SDS011;27892;52.378;13.122;2023-05-07T03:56:36;10.07;;;7.77;;
42226;SDS011;27892;52.378;13.122;2023-05-07T03:59:01;8.90;;;7.33;;
42226;SDS011;27892;52.378;13.122;2023-05-07T04:01:27;7.40;;;6.60;;
42226;SDS011;27892;52.378;13.122;2023-05-07T04:03:53;10.87;;;7.57;;
42226;SDS011;27892;52.378;13.122;2023-05-07T04:06:19;9.00;;;7.53;;
42226;SDS011;27892;52.378;13.122;2023-05-07T04:08:44;9.17;;;7.30;;
42226;SDS011;27892;52.378;13.122;2023-05-07T04:11:10;8.83;;;7.17;;
42226;SDS011;27892;52.378;13.122;2023-05-07T04:13:35;10.27;;;7.83;;
42226;SDS011;27892;52.378;13.122;2023-05-07T04:16:02;8.70;;;7.40;;
42226;SDS011;27892;52.378;13.122;2023-05-07T04:18:29;9.03;;;7.00;;
42226;SDS011;27892;52.378;13.122;2023-05-07T04:20:55;8.77;;;7.33;;
42226;SDS011;27892;52.378;13.122;2023-05-07T04:23:20;10.83;;;8.73;;
42226;SDS011;27892;52.378;13.122;2023-05-07T04:25:46;8.47;;;7.50;;
42226;SDS011;27892;52.378;13.122;2023-05-07T04:28:12;9.63;;;8.20;;
42226;SDS011;27892;52.378;13.122;2023-05-07T04:30:38;12.60;;;8.30;;
42226;SDS011;27892;52.378;13.122;2023-05-07T04:33:04;9.17;;;8.10;;
42226;SDS011;27892;52.378;13.122;2023-05-07T04:35:29;8.77;;;7.60;;
42226;SDS011;27892;52.378;13.122;2023-05-07T04:37:55;9.00;;;8.10;;
42226;SDS011;27892;52.378;13.122;2023-05-07T04:40:21;11.20;;;8.23;;
42226;SDS011;27892;52.378;13.122;2023-05-07T04:42:47;8.87;;;7.53;;
42226;SDS011;27892;52.378;13.122;2023-05-07T04:45:12;9.37;;;7.93;;
42226;SDS011;27892;52.378;13.122;2023-05-07T04:47:38;10.60;;;9.13;;
42226;SDS011;27892;52.378;13.122;2023-05-07T04:50:04;9.67;;;8.50;;
42226;SDS011;27892;52.378;13.122;2023-05-07T04:52:31;9.80;;;7.80;;
42226;SDS011;27892;52.378;13.122;2023-05-07T04:54:59;10.80;;;7.30;;
42226;SDS011;27892;52.378;13.122;2023-05-07T04:57:25;8.70;;;7.00;;
42226;SDS011;27892;52.378;13.122;2023-05-07T04:59:51;9.40;;;7.80;;
42226;SDS011;27892;52.378;13.122;2023-05-07T05:02:17;10.47;;;8.07;;
42226;SDS011;27892;52.378;13.122;2023-05-07T05:04:42;9.40;;;7.77;;
42226;SDS011;27892;52.378;13.122;2023-05-07T05:07:08;10.77;;;8.17;;
42226;SDS011;27892;52.378;13.122;2023-05-07T05:09:34;10.17;;;8.53;;
42226;SDS011;27892;52.378;13.122;2023-05-07T05:11:59;11.37;;;8.33;;
42226;SDS011;27892;52.378;13.122;2023-05-07T05:14:25;10.17;;;8.30;;
42226;SDS011;27892;52.378;13.122;2023-05-07T05:16:50;10.67;;;8.27;;
42226;SDS011;27892;52.378;13.122;2023-05-07T05:19:19;11.17;;;8.13;;
42226;SDS011;27892;52.378;13.122;2023-05-07T05:21:45;10.90;;;7.83;;
42226;SDS011;27892;52.378;13.122;2023-05-07T05:24:10;9.00;;;7.40;;
42226;SDS011;27892;52.378;13.122;2023-05-07T05:26:36;10.10;;;8.07;;
42226;SDS011;27892;52.378;13.122;2023-05-07T05:29:02;8.07;;;7.27;;
42226;SDS011;27892;52.378;13.122;2023-05-07T05:31:27;9.23;;;7.10;;
42226;SDS011;27892;52.378;13.122;2023-05-07T05:33:53;7.50;;;6.70;;
42226;SDS011;27892;52.378;13.122;2023-05-07T05:36:18;10.23;;;7.83;;
42226;SDS011;27892;52.378;13.122;2023-05-07T05:38:44;8.53;;;7.63;;
42226;SDS011;27892;52.378;13.122;2023-05-07T05:41:10;9.30;;;7.63;;
42226;SDS011;27892;52.378;13.122;2023-05-07T05:43:35;9.30;;;7.23;;
42226;SDS011;27892;52.378;13.122;2023-05-07T05:46:01;7.47;;;6.70;;
42226;SDS011;27892;52.378;13.122;2023-05-07T05:48:29;9.00;;;7.67;;
42226;SDS011;27892;52.378;13.122;2023-05-07T05:50:55;6.97;;;6.27;;
42226;SDS011;27892;52.378;13.122;2023-05-07T05:53:21;8.50;;;6.87;;
42226;SDS011;27892;52.378;13.122;2023-05-07T05:55:46;7.80;;;6.80;;
42226;SDS011;27892;52.378;13.122;2023-05-07T05:58:12;8.50;;;6.90;;
42226;SDS011;27892;52.378;13.122;2023-05-07T06:00:38;8.90;;;7.37;;
42226;SDS011;27892;52.378;13.122;2023-05-07T06:03:03;8.67;;;7.33;;
42226;SDS011;27892;52.378;13.122;2023-05-07T06:05:29;7.70;;;6.87;;
42226;SDS011;27892;52.378;13.122;2023-05-07T06:07:55;7.20;;;6.50;;
42226;SDS011;27892;52.378;13.122;2023-05-07T06:10:21;7.90;;;6.70;;
42226;SDS011;27892;52.378;13.122;2023-05-07T06:12:46;6.97;;;6.27;;
42226;SDS011;27892;52.378;13.122;2023-05-07T06:15:12;7.00;;;6.30;;
42226;SDS011;27892;52.378;13.122;2023-05-07T06:17:38;6.63;;;5.57;;
42226;SDS011;27892;52.378;13.122;2023-05-07T06:20:03;9.00;;;6.80;;
42226;SDS011;27892;52.378;13.122;2023-05-07T06:22:29;6.27;;;5.67;;
42226;SDS011;27892;52.378;13.122;2023-05-07T06:24:55;7.87;;;6.27;;
42226;SDS011;27892;52.378;13.122;2023-05-07T06:27:21;6.57;;;5.53;;
42226;SDS011;27892;52.378;13.122;2023-05-07T06:29:47;6.67;;;5.57;;
42226;SDS011;27892;52.378;13.122;2023-05-07T06:32:13;7.40;;;5.20;;
42226;SDS011;27892;52.378;13.122;2023-05-07T06:34:39;5.47;;;4.50;;
42226;SDS011;27892;52.378;13.122;2023-05-07T06:37:06;4.30;;;3.90;;
42226;SDS011;27892;52.378;13.122;2023-05-07T06:39:32;4.43;;;4.03;;
42226;SDS011;27892;52.378;13.122;2023-05-07T06:41:59;5.93;;;5.20;;
42226;SDS011;27892;52.378;13.122;2023-05-07T06:44:25;5.10;;;4.60;;
42226;SDS011;27892;52.378;13.122;2023-05-07T06:46:51;6.60;;;5.23;;
42226;SDS011;27892;52.378;13.122;2023-05-07T06:49:16;6.83;;;4.90;;
42226;SDS011;27892;52.378;13.122;2023-05-07T06:51:42;5.27;;;4.73;;
42226;SDS011;27892;52.378;13.122;2023-05-07T06:54:08;4.83;;;4.37;;
42226;SDS011;27892;52.378;13.122;2023-05-07T06:56:34;4.93;;;4.30;;
42226;SDS011;27892;52.378;13.122;2023-05-07T06:59:02;4.97;;;4.30;;
42226;SDS011;27892;52.378;13.122;2023-05-07T07:01:28;4.87;;;4.37;;
42226;SDS011;27892;52.378;13.122;2023-05-07T07:03:54;5.40;;;4.87;;
42226;SDS011;27892;52.378;13.122;2023-05-07T07:06:19;4.97;;;4.40;;
42226;SDS011;27892;52.378;13.122;2023-05-07T07:08:45;4.97;;;4.47;;
42226;SDS011;27892;52.378;13.122;2023-05-07T07:11:11;4.47;;;4.07;;
42226;SDS011;27892;52.378;13.122;2023-05-07T07:13:37;5.23;;;4.73;;
42226;SDS011;27892;52.378;13.122;2023-05-07T07:16:02;5.47;;;4.63;;
42226;SDS011;27892;52.378;13.122;2023-05-07T07:18:28;5.23;;;4.73;;
42226;SDS011;27892;52.378;13.122;2023-05-07T07:20:54;4.00;;;3.70;;
42226;SDS011;27892;52.378;13.122;2023-05-07T07:23:20;4.17;;;3.77;;
42226;SDS011;27892;52.378;13.122;2023-05-07T07:25:46;5.03;;;4.20;;
42226;SDS011;27892;52.378;13.122;2023-05-07T07:28:11;4.00;;;3.60;;
42226;SDS011;27892;52.378;13.122;2023-05-07T07:30:37;5.40;;;4.63;;
42226;SDS011;27892;52.378;13.122;2023-05-07T07:33:04;5.17;;;4.40;;
42226;SDS011;27892;52.378;13.122;2023-05-07T07:35:30;5.40;;;4.03;;
42226;SDS011;27892;52.378;13.122;2023-05-07T07:37:56;4.53;;;4.13;;
42226;SDS011;27892;52.378;13.122;2023-05-07T07:40:22;5.07;;;4.37;;
42226;SDS011;27892;52.378;13.122;2023-05-07T07:42:48;5.33;;;4.80;;
42226;SDS011;27892;52.378;13.122;2023-05-07T07:45:14;5.70;;;4.77;;
42226;SDS011;27892;52.378;13.122;2023-05-07T07:47:40;5.20;;;4.70;;
42226;SDS011;27892;52.378;13.122;2023-05-07T07:50:06;4.80;;;4.27;;
42226;SDS011;27892;52.378;13.122;2023-05-07T07:52:32;6.80;;;5.50;;
42226;SDS011;27892;52.378;13.122;2023-05-07T07:54:58;6.30;;;5.20;;
42226;SDS011;27892;52.378;13.122;2023-05-07T07:57:24;4.90;;;4.47;;
42226;SDS011;27892;52.378;13.122;2023-05-07T07:59:50;5.50;;;5.00;;
42226;SDS011;27892;52.378;13.122;2023-05-07T08:02:16;6.93;;;5.17;;
42226;SDS011;27892;52.378;13.122;2023-05-07T08:04:42;5.90;;;4.50;;
42226;SDS011;27892;52.378;13.122;2023-05-07T08:07:10;5.00;;;4.50;;
42226;SDS011;27892;52.378;13.122;2023-05-07T08:09:39;5.20;;;4.67;;
42226;SDS011;27892;52.378;13.122;2023-05-07T08:12:05;4.93;;;4.43;;
42226;SDS011;27892;52.378;13.122;2023-05-07T08:14:31;4.63;;;4.23;;
42226;SDS011;27892;52.378;13.122;2023-05-07T08:16:57;4.77;;;4.27;;
42226;SDS011;27892;52.378;13.122;2023-05-07T08:19:23;13.80;;;8.87;;
42226;SDS011;27892;52.378;13.122;2023-05-07T08:21:49;24.03;;;17.93;;
42226;SDS011;27892;52.378;13.122;2023-05-07T08:24:15;7.70;;;6.63;;
42226;SDS011;27892;52.378;13.122;2023-05-07T08:26:41;5.17;;;3.90;;
42226;SDS011;27892;52.378;13.122;2023-05-07T08:29:08;3.97;;;3.60;;
42226;SDS011;27892;52.378;13.122;2023-05-07T08:31:33;4.37;;;3.77;;
42226;SDS011;27892;52.378;13.122;2023-05-07T08:33:59;5.03;;;3.70;;
42226;SDS011;27892;52.378;13.122;2023-05-07T08:36:25;3.33;;;3.03;;
42226;SDS011;27892;52.378;13.122;2023-05-07T08:38:51;4.37;;;3.10;;
42226;SDS011;27892;52.378;13.122;2023-05-07T08:41:18;5.10;;;3.40;;
42226;SDS011;27892;52.378;13.122;2023-05-07T08:43:50;5.03;;;3.87;;
42226;SDS011;27892;52.378;13.122;2023-05-07T08:46:20;4.37;;;2.97;;
42226;SDS011;27892;52.378;13.122;2023-05-07T08:48:50;4.90;;;3.40;;
42226;SDS011;27892;52.378;13.122;2023-05-07T08:51:20;4.27;;;3.10;;
42226;SDS011;27892;52.378;13.122;2023-05-07T08:53:46;3.20;;;3.00;;
42226;SDS011;27892;52.378;13.122;2023-05-07T08:56:14;3.93;;;2.70;;
42226;SDS011;27892;52.378;13.122;2023-05-07T08:58:41;3.50;;;3.20;;
42226;SDS011;27892;52.378;13.122;2023-05-07T09:01:12;3.00;;;2.70;;
42226;SDS011;27892;52.378;13.122;2023-05-07T09:03:39;4.17;;;3.00;;
42226;SDS011;27892;52.378;13.122;2023-05-07T09:06:05;3.37;;;3.07;;
42226;SDS011;27892;52.378;13.122;2023-05-07T09:08:32;3.33;;;3.00;;
42226;SDS011;27892;52.378;13.122;2023-05-07T09:10:59;3.77;;;2.90;;
42226;SDS011;27892;52.378;13.122;2023-05-07T09:13:25;3.87;;;2.80;;
42226;SDS011;27892;52.378;13.122;2023-05-07T09:15:52;4.53;;;2.70;;
42226;SDS011;27892;52.378;13.122;2023-05-07T09:18:17;3.57;;;2.60;;
42226;SDS011;27892;52.378;13.122;2023-05-07T09:20:43;3.87;;;2.57;;
42226;SDS011;27892;52.378;13.122;2023-05-07T09:23:09;3.23;;;3.03;;
42226;SDS011;27892;52.378;13.122;2023-05-07T09:25:35;2.50;;;2.30;;
42226;SDS011;27892;52.378;13.122;2023-05-07T09:28:02;2.80;;;2.60;;
42226;SDS011;27892;52.378;13.122;2023-05-07T09:30:29;3.13;;;2.57;;
42226;SDS011;27892;52.378;13.122;2023-05-07T09:32:56;3.77;;;2.73;;
42226;SDS011;27892;52.378;13.122;2023-05-07T09:35:25;2.90;;;2.53;;
42226;SDS011;27892;52.378;13.122;2023-05-07T09:37:55;3.33;;;2.83;;
42226;SDS011;27892;52.378;13.122;2023-05-07T09:40:22;3.33;;;2.87;;
42226;SDS011;27892;52.378;13.122;2023-05-07T09:42:50;3.60;;;2.93;;
42226;SDS011;27892;52.378;13.122;2023-05-07T09:45:16;2.93;;;2.70;;
42226;SDS011;27892;52.378;13.122;2023-05-07T09:47:48;3.23;;;2.80;;
42226;SDS011;27892;52.378;13.122;2023-05-07T09:50:18;3.73;;;3.07;;
42226;SDS011;27892;52.378;13.122;2023-05-07T09:52:46;3.73;;;2.80;;
42226;SDS011;27892;52.378;13.122;2023-05-07T09:55:13;3.03;;;2.80;;
42226;SDS011;27892;52.378;13.122;2023-05-07T09:57:40;2.80;;;2.60;;
42226;SDS011;27892;52.378;13.122;2023-05-07T10:00:07;2.80;;;2.60;;
42226;SDS011;27892;52.378;13.122;2023-05-07T10:02:34;2.70;;;2.50;;
42226;SDS011;27892;52.378;13.122;2023-05-07T10:05:01;2.30;;;2.10;;
42226;SDS011;27892;52.378;13.122;2023-05-07T10:07:28;2.67;;;2.47;;
42226;SDS011;27892;52.378;13.122;2023-05-07T10:09:55;2.50;;;2.30;;
42226;SDS011;27892;52.378;13.122;2023-05-07T10:12:21;2.50;;;2.30;;
42226;SDS011;27892;52.378;13.122;2023-05-07T10:14:48;2.77;;;2.57;;
42226;SDS011;27892;52.378;13.122;2023-05-07T10:17:16;2.73;;;2.53;;
42226;SDS011;27892;52.378;13.122;2023-05-07T10:19:44;2.80;;;2.27;;
42226;SDS011;27892;52.378;13.122;2023-05-07T10:22:10;2.90;;;2.70;;
42226;SDS011;27892;52.378;13.122;2023-05-07T10:24:38;3.00;;;2.70;;
42226;SDS011;27892;52.378;13.122;2023-05-07T10:27:06;2.40;;;2.20;;
42226;SDS011;27892;52.378;13.122;2023-05-07T10:34:58;2.80;;;2.60;;
42226;SDS011;27892;52.378;13.122;2023-05-07T10:37:27;2.22;;;2.13;;
42226;SDS011;27892;52.378;13.122;2023-05-07T10:39:54;2.83;;;2.17;;
42226;SDS011;27892;52.378;13.122;2023-05-07T10:42:20;2.20;;;2.00;;
42226;SDS011;27892;52.378;13.122;2023-05-07T10:44:45;2.15;;;1.95;;
42226;SDS011;27892;52.378;13.122;2023-05-07T10:47:12;2.50;;;2.30;;
42226;SDS011;27892;52.378;13.122;2023-05-07T10:52:16;3.08;;;2.25;;
42226;SDS011;27892;52.378;13.122;2023-05-07T10:55:18;3.30;;;2.53;;
42226;SDS011;27892;52.378;13.122;2023-05-07T10:57:44;2.73;;;2.30;;
42226;SDS011;27892;52.378;13.122;2023-05-07T11:03:06;2.63;;;2.43;;
42226;SDS011;27892;52.378;13.122;2023-05-07T11:05:32;2.70;;;2.50;;
42226;SDS011;27892;52.378;13.122;2023-05-07T11:08:01;2.57;;;2.40;;
42226;SDS011;27892;52.378;13.122;2023-05-07T11:13:45;2.47;;;2.27;;
42226;SDS011;27892;52.378;13.122;2023-05-07T11:16:21;2.27;;;2.13;;
42226;SDS011;27892;52.378;13.122;2023-05-07T11:18:51;6.93;;;4.15;;
42226;SDS011;27892;52.378;13.122;2023-05-07T11:21:34;20.47;;;15.33;;
42226;SDS011;27892;52.378;13.122;2023-05-07T11:24:01;2.80;;;2.60;;
42226;SDS011;27892;52.378;13.122;2023-05-07T11:26:28;2.33;;;1.80;;
42226;SDS011;27892;52.378;13.122;2023-05-07T11:28:56;2.10;;;2.00;;
42226;SDS011;27892;52.378;13.122;2023-05-07T11:31:23;2.57;;;2.13;;
42226;SDS011;27892;52.378;13.122;2023-05-07T11:33:53;2.90;;;2.13;;
42226;SDS011;27892;52.378;13.122;2023-05-07T11:36:21;2.23;;;2.07;;
42226;SDS011;27892;52.378;13.122;2023-05-07T11:38:48;2.10;;;2.00;;
42226;SDS011;27892;52.378;13.122;2023-05-07T11:41:15;2.50;;;2.23;;
42226;SDS011;27892;52.378;13.122;2023-05-07T11:43:55;2.85;;;2.50;;
42226;SDS011;27892;52.378;13.122;2023-05-07T11:46:22;2.40;;;2.20;;
42226;SDS011;27892;52.378;13.122;2023-05-07T11:48:48;2.23;;;2.10;;
42226;SDS011;27892;52.378;13.122;2023-05-07T11:51:18;2.30;;;2.20;;
42226;SDS011;27892;52.378;13.122;2023-05-07T11:53:44;2.40;;;2.20;;
42226;SDS011;27892;52.378;13.122;2023-05-07T11:56:12;2.50;;;2.30;;
42226;SDS011;27892;52.378;13.122;2023-05-07T11:58:39;2.47;;;2.27;;
42226;SDS011;27892;52.378;13.122;2023-05-07T12:01:07;2.20;;;2.10;;
42226;SDS011;27892;52.378;13.122;2023-05-07T12:03:34;2.30;;;2.10;;
42226;SDS011;27892;52.378;13.122;2023-05-07T12:06:02;2.00;;;1.90;;
42226;SDS011;27892;52.378;13.122;2023-05-07T12:08:30;2.60;;;2.40;;
42226;SDS011;27892;52.378;13.122;2023-05-07T12:10:55;2.43;;;2.33;;
42226;SDS011;27892;52.378;13.122;2023-05-07T12:13:22;2.50;;;2.30;;
42226;SDS011;27892;52.378;13.122;2023-05-07T12:15:51;10.80;;;6.87;;
42226;SDS011;27892;52.378;13.122;2023-05-07T12:18:21;7.70;;;6.37;;
42226;SDS011;27892;52.378;13.122;2023-05-07T12:20:48;2.50;;;2.40;;
42226;SDS011;27892;52.378;13.122;2023-05-07T12:23:14;2.20;;;2.00;;
42226;SDS011;27892;52.378;13.122;2023-05-07T12:25:41;2.07;;;1.97;;
42226;SDS011;27892;52.378;13.122;2023-05-07T12:28:15;2.43;;;2.23;;
42226;SDS011;27892;52.378;13.122;2023-05-07T12:30:42;2.60;;;2.20;;
42226;SDS011;27892;52.378;13.122;2023-05-07T12:33:09;2.40;;;2.23;;
42226;SDS011;27892;52.378;13.122;2023-05-07T12:35:39;2.43;;;2.10;;
42226;SDS011;27892;52.378;13.122;2023-05-07T12:38:16;2.20;;;2.00;;
42226;SDS011;27892;52.378;13.122;2023-05-07T12:40:43;1.90;;;1.80;;
42226;SDS011;27892;52.378;13.122;2023-05-07T12:43:26;2.00;;;1.90;;
42226;SDS011;27892;52.378;13.122;2023-05-07T12:45:57;1.97;;;1.87;;
42226;SDS011;27892;52.378;13.122;2023-05-07T12:48:25;2.80;;;2.27;;
42226;SDS011;27892;52.378;13.122;2023-05-07T12:50:55;2.07;;;1.97;;
42226;SDS011;27892;52.378;13.122;2023-05-07T12:53:22;3.00;;;2.10;;
42226;SDS011;27892;52.378;13.122;2023-05-07T12:55:51;2.35;;;2.03;;
42226;SDS011;27892;52.378;13.122;2023-05-07T12:58:19;2.30;;;2.17;;
42226;SDS011;27892;52.378;13.122;2023-05-07T13:00:53;2.40;;;2.20;;
42226;SDS011;27892;52.378;13.122;2023-05-07T13:03:25;2.57;;;2.10;;
42226;SDS011;27892;52.378;13.122;2023-05-07T13:05:53;2.47;;;2.27;;
42226;SDS011;27892;52.378;13.122;2023-05-07T13:08:33;2.20;;;2.00;;
42226;SDS011;27892;52.378;13.122;2023-05-07T13:11:02;3.00;;;2.30;;
42226;SDS011;27892;52.378;13.122;2023-05-07T13:13:29;2.53;;;2.33;;
42226;SDS011;27892;52.378;13.122;2023-05-07T13:15:56;2.70;;;2.50;;
42226;SDS011;27892;52.378;13.122;2023-05-07T13:18:21;2.60;;;2.33;;
42226;SDS011;27892;52.378;13.122;2023-05-07T13:20:47;2.35;;;2.00;;
42226;SDS011;27892;52.378;13.122;2023-05-07T13:23:13;2.40;;;2.20;;
42226;SDS011;27892;52.378;13.122;2023-05-07T13:25:38;2.77;;;2.20;;
42226;SDS011;27892;52.378;13.122;2023-05-07T13:28:04;1.88;;;1.73;;
42226;SDS011;27892;52.378;13.122;2023-05-07T13:30:30;2.23;;;2.10;;
42226;SDS011;27892;52.378;13.122;2023-05-07T13:32:56;4.60;;;2.10;;
42226;SDS011;27892;52.378;13.122;2023-05-07T13:35:21;2.78;;;2.10;;
42226;SDS011;27892;52.378;13.122;2023-05-07T13:37:47;2.30;;;1.90;;
42226;SDS011;27892;52.378;13.122;2023-05-07T13:40:14;1.80;;;1.70;;
42226;SDS011;27892;52.378;13.122;2023-05-07T13:42:40;7.50;;;4.68;;
42226;SDS011;27892;52.378;13.122;2023-05-07T13:45:07;2.28;;;1.90;;
42226;SDS011;27892;52.378;13.122;2023-05-07T13:47:34;3.05;;;2.22;;
42226;SDS011;27892;52.378;13.122;2023-05-07T13:50:00;3.10;;;2.00;;
42226;SDS011;27892;52.378;13.122;2023-05-07T13:52:25;1.77;;;1.67;;
42226;SDS011;27892;52.378;13.122;2023-05-07T13:54:51;2.17;;;1.98;;
42226;SDS011;27892;52.378;13.122;2023-05-07T13:57:17;1.98;;;1.50;;
42226;SDS011;27892;52.378;13.122;2023-05-07T13:59:43;1.70;;;1.60;;
42226;SDS011;27892;52.378;13.122;2023-05-07T14:02:09;7.45;;;6.13;;
42226;SDS011;27892;52.378;13.122;2023-05-07T14:04:35;2.85;;;2.55;;
42226;SDS011;27892;52.378;13.122;2023-05-07T14:07:02;2.10;;;1.90;;
42226;SDS011;27892;52.378;13.122;2023-05-07T14:09:28;2.00;;;1.90;;
42226;SDS011;27892;52.378;13.122;2023-05-07T14:11:54;1.90;;;1.80;;
42226;SDS011;27892;52.378;13.122;2023-05-07T14:14:19;1.50;;;1.40;;
42226;SDS011;27892;52.378;13.122;2023-05-07T14:16:45;1.88;;;1.77;;
42226;SDS011;27892;52.378;13.122;2023-05-07T14:19:11;1.80;;;1.70;;
42226;SDS011;27892;52.378;13.122;2023-05-07T14:21:37;2.00;;;1.75;;
42226;SDS011;27892;52.378;13.122;2023-05-07T14:24:03;1.80;;;1.70;;
42226;SDS011;27892;52.378;13.122;2023-05-07T14:26:31;2.88;;;1.92;;
42226;SDS011;27892;52.378;13.122;2023-05-07T14:28:57;1.90;;;1.80;;
42226;SDS011;27892;52.378;13.122;2023-05-07T14:31:23;2.00;;;1.90;;
42226;SDS011;27892;52.378;13.122;2023-05-07T14:33:49;1.90;;;1.80;;
42226;SDS011;27892;52.378;13.122;2023-05-07T14:36:16;12.70;;;9.17;;
42226;SDS011;27892;52.378;13.122;2023-05-07T14:38:42;7.07;;;5.15;;
42226;SDS011;27892;52.378;13.122;2023-05-07T14:41:08;6.30;;;3.50;;
42226;SDS011;27892;52.378;13.122;2023-05-07T14:43:33;2.35;;;2.03;;